Time;durP1;ratioP1;P1;durP2;ratioP2;P2;SDS_P1;SDS_P2;PMS_P1;PMS_P2;Temp;Humidity;BMP_temperature;BMP_pressure;BME280_temperature;BME280_humidity;BME280_pressure;Samples;Min_cycle;Max_cycle;Signal;HPM_P1;HPM_P2
2023/01/08 00:00:57;;;;;;;51.22;34.30;;;;;;;3.41;100.00;99375.38;5033894;28;20026;-76
2023/01/08 00:03:23;;;;;;;52.95;34.58;;;;;;;3.32;100.00;99360.13;5033514;28;20025;-76
2023/01/08 00:05:48;;;;;;;48.63;32.92;;;;;;;3.34;100.00;99379.81;5033576;28;20271;-76
2023/01/08 00:08:14;;;;;;;55.15;37.08;;;;;;;3.26;100.00;99363.69;5033669;28;20376;-76
2023/01/08 00:10:39;;;;;;;57.25;37.53;;;;;;;3.27;100.00;99364.53;5033594;28;20029;-76
2023/01/08 00:13:06;;;;;;;57.58;38.17;;;;;;;3.32;100.00;99373.84;5033414;28;20025;-76
2023/01/08 00:15:32;;;;;;;51.97;34.80;;;;;;;3.22;100.00;99357.75;5032072;28;20022;-76
2023/01/08 00:17:58;;;;;;;56.10;38.25;;;;;;;3.18;100.00;99357.88;5033357;28;20104;-76
2023/01/08 00:20:24;;;;;;;52.88;33.72;;;;;;;3.21;100.00;99362.94;5033073;28;20105;-76
2023/01/08 00:22:50;;;;;;;59.78;39.63;;;;;;;3.14;100.00;99356.22;5033356;28;20017;-76
2023/01/08 00:25:15;;;;;;;56.55;37.45;;;;;;;3.15;100.00;99370.78;5033442;28;20068;-76
2023/01/08 00:27:40;;;;;;;56.28;37.03;;;;;;;3.07;100.00;99359.81;5033431;28;20472;-76
2023/01/08 00:30:06;;;;;;;57.13;38.38;;;;;;;3.03;100.00;99346.16;5033369;28;20369;-76
2023/01/08 00:32:32;;;;;;;53.42;37.33;;;;;;;3.03;100.00;99343.56;5032922;28;20485;-76
2023/01/08 00:34:57;;;;;;;53.75;34.60;;;;;;;3.08;100.00;99361.53;5033128;28;20459;-76
2023/01/08 00:37:22;;;;;;;57.90;37.28;;;;;;;3.00;100.00;99347.06;5033081;28;20132;-76
2023/01/08 00:39:48;;;;;;;65.03;42.22;;;;;;;3.05;100.00;99362.41;5033305;28;20458;-76
2023/01/08 00:42:13;;;;;;;57.95;39.33;;;;;;;2.98;100.00;99356.53;5032746;28;20159;-76
2023/01/08 00:44:38;;;;;;;54.72;38.95;;;;;;;2.99;100.00;99360.84;5033086;28;20017;-76
2023/01/08 00:47:04;;;;;;;57.58;39.15;;;;;;;2.98;100.00;99366.84;5032955;28;20104;-76
2023/01/08 00:49:29;;;;;;;53.08;38.35;;;;;;;2.87;100.00;99352.50;5032550;28;20048;-76
2023/01/08 00:51:54;;;;;;;56.83;38.20;;;;;;;2.93;100.00;99363.50;5033039;28;20056;-76
2023/01/08 00:54:20;;;;;;;66.13;44.55;;;;;;;2.90;100.00;99360.16;5033019;28;20014;-76
2023/01/08 00:56:45;;;;;;;64.75;42.53;;;;;;;2.90;100.00;99360.16;5032834;28;20024;-76
2023/01/08 00:59:11;;;;;;;58.50;38.92;;;;;;;2.82;100.00;99344.88;5032628;28;20072;-76
2023/01/08 01:01:36;;;;;;;61.25;41.58;;;;;;;2.89;100.00;99361.03;5032455;28;20025;-76
2023/01/08 01:04:02;;;;;;;64.28;42.72;;;;;;;2.87;100.00;99358.50;5032827;28;20021;-76
2023/01/08 01:06:27;;;;;;;60.33;40.03;;;;;;;2.78;100.00;99344.97;5032275;28;20529;-76
2023/01/08 01:08:53;;;;;;;59.80;39.05;;;;;;;2.75;100.00;99345.88;5032712;28;20033;-76
2023/01/08 01:11:21;;;;;;;55.40;38.40;;;;;;;2.67;100.00;99333.16;5032426;28;20064;-76
2023/01/08 01:13:47;;;;;;;50.92;35.85;;;;;;;2.73;100.00;99340.75;5031242;28;20020;-76
2023/01/08 01:16:12;;;;;;;53.08;36.97;;;;;;;2.69;100.00;99343.41;5032356;28;20021;-76
2023/01/08 01:18:38;;;;;;;57.80;41.35;;;;;;;2.73;100.00;99353.59;5032040;28;20029;-76
2023/01/08 01:21:10;;;;;;;56.70;37.97;;;;;;;2.67;100.00;99343.47;5032577;28;20079;-76
2023/01/08 01:23:35;;;;;;;57.72;37.60;;;;;;;2.61;100.00;99324.72;5032151;28;20041;-76
2023/01/08 01:26:01;;;;;;;60.30;37.22;;;;;;;2.66;100.00;99339.19;5032391;28;20357;-76
2023/01/08 01:28:26;;;;;;;60.70;40.50;;;;;;;2.72;100.00;99345.94;5032099;28;20026;-76
2023/01/08 01:30:55;;;;;;;50.67;34.55;;;;;;;2.72;100.00;99339.06;5032205;28;20029;-76
2023/01/08 01:33:21;;;;;;;48.38;33.90;;;;;;;2.69;100.00;99327.97;5031804;28;20032;-76
2023/01/08 01:35:46;;;;;;;59.63;38.83;;;;;;;2.61;100.00;99309.28;5032397;28;20021;-76
2023/01/08 01:38:12;;;;;;;54.80;36.28;;;;;;;2.73;100.00;99317.59;5032326;28;20054;-76
2023/01/08 01:40:41;;;;;;;55.20;38.20;;;;;;;2.64;100.00;99309.25;5031908;28;20178;-76
2023/01/08 01:43:13;;;;;;;50.92;34.72;;;;;;;2.77;100.00;99335.56;5032010;28;20069;-76
2023/01/08 01:45:39;;;;;;;53.10;38.15;;;;;;;2.71;100.00;99327.09;5031725;28;20075;-76
2023/01/08 01:48:12;;;;;;;49.25;34.95;;;;;;;2.73;100.00;99325.31;5032232;28;20034;-76
2023/01/08 01:50:43;;;;;;;49.90;34.28;;;;;;;2.75;100.00;99330.44;5031765;28;20099;-76
2023/01/08 01:53:10;;;;;;;53.38;33.60;;;;;;;2.75;100.00;99326.16;5032005;28;20030;-76
2023/01/08 01:55:39;;;;;;;47.78;33.25;;;;;;;2.73;100.00;99333.03;5031849;28;20022;-76
2023/01/08 01:58:12;;;;;;;52.53;33.80;;;;;;;2.59;100.00;99319.63;5031750;28;20384;-76
2023/01/08 02:00:37;;;;;;;53.35;34.13;;;;;;;2.73;100.00;99338.19;5031949;28;20260;-76
2023/01/08 02:03:04;;;;;;;52.47;37.17;;;;;;;2.60;100.00;99317.88;5032087;28;20079;-76
2023/01/08 02:05:51;;;;;;;55.17;35.65;;;;;;;2.64;100.00;99320.38;5031709;28;20457;-76
2023/01/08 02:08:25;;;;;;;48.85;33.55;;;;;;;2.69;100.00;99320.28;5031735;28;20039;-76
2023/01/08 02:11:01;;;;;;;52.28;34.17;;;;;;;2.67;100.00;99320.31;5034492;28;20021;-76
2023/01/08 02:13:30;;;;;;;56.65;37.45;;;;;;;2.56;100.00;99296.53;5036060;28;20112;-76
2023/01/08 02:15:58;;;;;;;46.85;33.38;;;;;;;2.65;100.00;99311.75;5035853;28;20100;-77
2023/01/08 02:18:44;;;;;;;50.92;34.28;;;;;;;2.68;100.00;99310.88;5035643;28;20036;-76
2023/01/08 02:21:16;;;;;;;50.42;34.92;;;;;;;2.66;100.00;99303.19;5035646;28;20018;-76
2023/01/08 02:23:55;;;;;;;57.58;35.42;;;;;;;2.65;100.00;99309.19;5035593;28;20213;-76
2023/01/08 02:26:29;;;;;;;52.97;34.72;;;;;;;2.66;100.00;99304.94;5035396;28;20346;-76
2023/01/08 02:29:17;;;;;;;57.33;36.20;;;;;;;2.56;100.00;99285.41;5035625;28;20100;-76
2023/01/08 02:31:43;;;;;;;46.58;32.22;;;;;;;2.59;100.00;99283.63;5035239;28;20029;-76
2023/01/08 02:34:10;;;;;;;50.67;33.65;;;;;;;2.54;100.00;99282.03;5035563;28;20364;-76
2023/01/08 02:36:44;;;;;;;62.65;39.85;;;;;;;2.62;100.00;99293.84;5035265;28;20028;-77
2023/01/08 02:39:19;;;;;;;55.03;38.50;;;;;;;2.63;100.00;99285.25;5035373;28;20093;-76
2023/01/08 02:42:30;;;;;;;52.95;34.90;;;;;;;2.64;100.00;99278.38;5033613;28;20046;-76
2023/01/08 02:45:06;;;;;;;56.53;39.38;;;;;;;2.66;100.00;99274.91;5032640;28;20044;-77
2023/01/08 02:47:45;;;;;;;55.70;36.35;;;;;;;2.70;100.00;99280.84;5032185;28;20033;-76
2023/01/08 02:50:20;;;;;;;51.38;34.75;;;;;;;2.62;100.00;99280.16;5032614;28;20076;-76
2023/01/08 02:53:01;;;;;;;52.83;35.42;;;;;;;2.63;100.00;99289.56;5032435;28;20472;-76
2023/01/08 02:55:29;;;;;;;55.50;38.47;;;;;;;2.60;100.00;99290.44;5032360;28;20481;-76
2023/01/08 02:57:56;;;;;;;56.22;37.55;;;;;;;2.59;100.00;99287.94;5032594;28;20463;-76
2023/01/08 03:00:22;;;;;;;59.40;41.10;;;;;;;2.65;100.00;99300.63;5032496;28;20376;-76
2023/01/08 03:02:51;;;;;;;57.00;39.33;;;;;;;2.64;100.00;99291.25;5015751;28;20509;-76
2023/01/08 03:05:24;;;;;;;63.30;42.58;;;;;;;2.63;100.00;99284.41;5015910;28;20368;-76
2023/01/08 03:07:49;;;;;;;60.80;42.45;;;;;;;2.59;100.00;99286.19;5032739;28;20055;-76
2023/01/08 03:10:15;;;;;;;59.15;38.40;;;;;;;2.59;100.00;99291.34;5032411;28;20108;-76
2023/01/08 03:12:50;;;;;;;53.88;37.22;;;;;;;2.58;100.00;99291.38;5032103;28;20069;-76
2023/01/08 03:15:23;;;;;;;56.65;39.00;;;;;;;2.53;100.00;99281.19;5032186;28;20034;-76
2023/01/08 03:17:53;;;;;;;54.70;37.38;;;;;;;2.54;100.00;99282.03;5015331;28;20380;-76
2023/01/08 03:20:22;;;;;;;55.03;39.17;;;;;;;2.56;100.00;99287.97;5032248;28;20028;-76
2023/01/08 03:22:51;;;;;;;51.58;35.45;;;;;;;2.55;100.00;99276.00;5032967;28;20120;-76
2023/01/08 03:25:20;;;;;;;55.58;38.42;;;;;;;2.47;100.00;99268.44;5034613;28;20044;-76
2023/01/08 03:27:54;;;;;;;53.50;35.53;;;;;;;2.40;100.00;99257.44;5034158;28;20064;-76
2023/01/08 03:30:22;;;;;;;54.00;39.35;;;;;;;2.54;100.00;99288.00;5034622;28;20586;-76
2023/01/08 03:32:50;;;;;;;62.90;41.75;;;;;;;2.51;100.00;99272.66;5034317;28;20025;-76
2023/01/08 03:35:19;;;;;;;61.95;43.55;;;;;;;2.52;100.00;99265.78;5034451;28;20022;-76
2023/01/08 03:37:50;;;;;;;63.15;42.28;;;;;;;2.45;100.00;99258.19;5034077;28;20026;-76
2023/01/08 03:40:19;;;;;;;;;;;;;;;2.50;100.00;99264.09;5034673;28;20021;-76
2023/01/08 03:42:44;;;;;;;63.72;41.03;;;;;;;2.42;100.00;99227.41;5033823;28;19995;-76
2023/01/08 03:45:10;;;;;;;62.88;43.50;;;;;;;2.38;100.00;99220.63;5034300;28;20059;-76
2023/01/08 03:47:38;;;;;;;60.22;40.53;;;;;;;2.34;100.00;99210.47;5034002;28;20040;-76
2023/01/08 03:50:08;;;;;;;59.50;39.30;;;;;;;2.40;100.00;99208.63;5034146;28;20036;-76
2023/01/08 03:52:34;;;;;;;54.40;39.05;;;;;;;2.38;100.00;99209.53;5033734;28;20017;-76
2023/01/08 03:54:59;;;;;;;58.05;40.00;;;;;;;2.38;100.00;99212.94;5034154;28;20040;-76
2023/01/08 03:57:25;;;;;;;58.88;40.97;;;;;;;2.42;100.00;99216.28;5034009;28;20357;-76
2023/01/08 03:59:50;;;;;;;59.78;39.50;;;;;;;2.43;100.00;99215.41;5034026;28;20338;-76
2023/01/08 04:02:16;;;;;;;58.90;42.50;;;;;;;2.43;100.00;99216.25;5033805;28;20022;-76
2023/01/08 04:04:42;;;;;;;58.17;39.00;;;;;;;2.36;100.00;99198.41;5033608;28;20032;-76
2023/01/08 04:07:09;;;;;;;57.33;39.17;;;;;;;2.34;100.00;99206.16;5033718;28;20366;-77
2023/01/08 04:09:35;;;;;;;55.70;38.85;;;;;;;2.36;100.00;99209.56;5033360;28;20025;-76
2023/01/08 04:12:00;;;;;;;56.83;40.15;;;;;;;2.32;100.00;99205.34;5034118;28;20021;-76
2023/01/08 04:14:25;;;;;;;57.85;39.65;;;;;;;2.33;100.00;99216.47;5033698;28;20018;-76
2023/01/08 04:16:51;;;;;;;60.20;40.25;;;;;;;2.34;100.00;99220.72;5032194;28;20041;-76
2023/01/08 04:19:16;;;;;;;61.33;41.97;;;;;;;2.31;100.00;99213.06;5033601;28;20033;-76
2023/01/08 04:21:41;;;;;;;63.55;44.92;;;;;;;2.33;100.00;99226.75;5033416;28;20454;-76
2023/01/08 04:24:07;;;;;;;61.92;43.13;;;;;;;2.39;100.00;99236.91;5033462;28;20022;-76
2023/01/08 04:26:32;;;;;;;60.97;42.97;;;;;;;2.39;100.00;99255.72;5033365;28;20025;-76
2023/01/08 04:28:58;;;;;;;57.83;41.35;;;;;;;2.35;100.00;99242.97;5033322;28;20384;-76
2023/01/08 04:31:23;;;;;;;64.25;41.92;;;;;;;2.39;100.00;99248.03;5033704;28;20025;-76
2023/01/08 04:33:49;;;;;;;63.90;43.72;;;;;;;2.37;100.00;99224.09;5032807;28;20026;-76
2023/01/08 04:36:14;;;;;;;63.30;42.05;;;;;;;2.37;100.00;99221.53;5033742;28;20361;-76
2023/01/08 04:38:39;;;;;;;61.78;41.50;;;;;;;2.39;100.00;99227.47;5033217;28;20099;-76
2023/01/08 04:41:05;;;;;;;61.22;40.08;;;;;;;2.40;100.00;99218.91;5033144;28;20021;-76
2023/01/08 04:43:31;;;;;;;61.55;40.90;;;;;;;2.40;100.00;99220.59;5033240;28;20036;-76
2023/01/08 04:45:57;;;;;;;65.18;42.42;;;;;;;2.41;100.00;99207.72;5033179;28;20365;-76
2023/01/08 04:48:23;;;;;;;60.03;39.75;;;;;;;2.41;100.00;99205.16;5032878;28;20036;-76
2023/01/08 04:50:50;;;;;;;61.42;40.15;;;;;;;2.43;100.00;99208.53;5033044;28;20026;-76
2023/01/08 04:53:15;;;;;;;59.25;39.65;;;;;;;2.39;100.00;99198.34;5032760;28;20108;-76
2023/01/08 04:55:40;;;;;;;56.95;40.72;;;;;;;2.45;100.00;99203.38;5032735;28;20108;-76
2023/01/08 04:58:06;;;;;;;54.30;37.00;;;;;;;2.41;100.00;99197.47;5032830;28;20029;-76
2023/01/08 05:00:31;;;;;;;62.70;42.45;;;;;;;2.50;100.00;99197.25;5032672;28;20017;-76
2023/01/08 05:02:56;;;;;;;63.17;43.70;;;;;;;2.50;100.00;99197.25;5032764;28;20025;-76
2023/01/08 05:05:21;;;;;;;58.50;38.90;;;;;;;2.55;100.00;99188.59;5032702;28;20449;-76
2023/01/08 05:07:47;;;;;;;60.15;42.67;;;;;;;2.42;100.00;99164.88;5032295;28;20032;-76
2023/01/08 05:10:12;;;;;;;58.67;39.47;;;;;;;2.56;100.00;99185.97;5032746;28;20020;-76
2023/01/08 05:12:37;;;;;;;57.80;39.53;;;;;;;2.58;100.00;99189.38;5032554;28;20025;-76
2023/01/08 05:15:03;;;;;;;54.97;39.55;;;;;;;2.60;100.00;99181.63;5032616;28;20361;-76
2023/01/08 05:17:28;;;;;;;53.33;39.58;;;;;;;2.58;100.00;99188.53;5032471;28;20517;-76
2023/01/08 05:19:54;;;;;;;51.55;37.30;;;;;;;2.51;100.00;99190.38;5032253;28;20044;-76
2023/01/08 05:22:19;;;;;;;55.50;39.45;;;;;;;2.48;100.00;99182.72;5032329;28;20017;-76
2023/01/08 05:24:44;;;;;;;52.38;36.05;;;;;;;2.57;100.00;99200.56;5032324;28;20072;-76
2023/01/08 05:27:10;;;;;;;53.90;37.40;;;;;;;2.53;100.00;99196.34;5032474;28;20064;-76
2023/01/08 05:29:35;;;;;;;53.03;35.80;;;;;;;2.49;100.00;99184.44;5032484;28;20060;-76
2023/01/08 05:32:00;;;;;;;54.17;36.78;;;;;;;2.51;100.00;99185.25;5032441;28;20032;-76
2023/01/08 05:34:26;;;;;;;48.78;35.72;;;;;;;2.55;100.00;99191.16;5032349;28;20029;-76
2023/01/08 05:36:51;;;;;;;49.67;34.08;;;;;;;2.47;100.00;99181.88;5031993;28;20037;-76
2023/01/08 05:39:16;;;;;;;46.30;32.83;;;;;;;2.49;100.00;99169.03;5032044;28;20017;-76
2023/01/08 05:41:42;;;;;;;46.30;32.67;;;;;;;2.56;100.00;99175.69;5031822;28;20049;-76
2023/01/08 05:44:09;;;;;;;48.88;34.35;;;;;;;2.57;100.00;99168.84;5031705;28;20476;-76
2023/01/08 05:46:34;;;;;;;48.47;34.10;;;;;;;2.56;100.00;99165.41;5031839;28;20060;-76
2023/01/08 05:48:59;;;;;;;46.30;32.60;;;;;;;2.57;100.00;99166.25;5032092;28;20064;-76
2023/01/08 05:51:25;;;;;;;44.88;33.05;;;;;;;2.59;100.00;99154.25;5031887;28;20025;-77
2023/01/08 05:53:51;;;;;;;47.60;34.30;;;;;;;2.59;100.00;99149.94;5031696;28;20576;-76
2023/01/08 05:56:16;;;;;;;49.50;35.47;;;;;;;2.54;100.00;99138.06;5030760;28;20112;-76
2023/01/08 05:58:41;;;;;;;49.15;36.53;;;;;;;2.60;100.00;99137.91;5031737;28;20112;-76
2023/01/08 06:01:10;;;;;;;53.17;38.58;;;;;;;2.53;100.00;99131.22;5031844;28;20025;-76
2023/01/08 06:03:36;;;;;;;49.15;34.15;;;;;;;2.56;100.00;99134.56;5031591;28;20163;-76
2023/01/08 06:06:04;;;;;;;47.35;33.97;;;;;;;2.65;100.00;99146.38;5031859;28;20108;-76
2023/01/08 06:08:30;;;;;;;51.70;36.58;;;;;;;2.64;100.00;99132.66;5032255;28;20024;-76
2023/01/08 06:11:13;;;;;;;47.25;34.75;;;;;;;2.67;100.00;99135.19;5031940;28;20393;-76
2023/01/08 06:13:42;;;;;;;45.22;32.53;;;;;;;2.68;100.00;99139.44;5031659;28;20017;-76
2023/01/08 06:16:07;;;;;;;51.28;33.65;;;;;;;2.69;100.00;99130.00;5031564;28;20111;-76
2023/01/08 06:18:32;;;;;;;52.40;34.88;;;;;;;2.60;100.00;99109.66;5031442;28;20108;-76
2023/01/08 06:20:58;;;;;;;45.38;33.35;;;;;;;2.65;100.00;99123.22;5031376;28;20036;-76
2023/01/08 06:23:24;;;;;;;63.70;43.60;;;;;;;2.74;100.00;99134.16;5031813;28;20025;-76
2023/01/08 06:25:54;;;;;;;51.45;36.38;;;;;;;2.77;100.00;99124.69;5031486;28;20040;-76
2023/01/08 06:28:19;;;;;;;50.83;35.90;;;;;;;2.71;100.00;99118.81;5031628;28;20420;-76
2023/01/08 06:30:45;;;;;;;44.85;32.20;;;;;;;2.70;100.00;99113.72;5031457;28;20033;-76
2023/01/08 06:33:10;;;;;;;53.10;36.03;;;;;;;2.68;100.00;99108.59;5031592;28;20022;-76
2023/01/08 06:35:35;;;;;;;50.60;36.05;;;;;;;2.77;100.00;99104.09;5031327;28;20025;-76
2023/01/08 06:38:01;;;;;;;48.33;35.08;;;;;;;2.70;100.00;99098.28;5031787;28;20021;-76
2023/01/08 06:40:26;;;;;;;56.50;37.78;;;;;;;2.82;100.00;99115.13;5030299;28;20412;-76
2023/01/08 06:42:51;;;;;;;55.20;39.72;;;;;;;2.84;100.00;99110.81;5031075;28;20069;-76
2023/01/08 06:45:17;;;;;;;54.90;38.92;;;;;;;2.80;100.00;99110.03;5031412;28;20014;-76
2023/01/08 06:47:42;;;;;;;55.80;36.65;;;;;;;2.85;100.00;99115.06;5031301;28;20060;-76
2023/01/08 06:50:08;;;;;;;44.65;32.72;;;;;;;2.91;100.00;99125.22;5032016;28;20017;-76
2023/01/08 06:52:33;;;;;;;53.78;35.92;;;;;;;2.84;100.00;99116.78;5031546;28;20440;-76
2023/01/08 06:54:59;;;;;;;48.97;35.45;;;;;;;2.82;100.00;99117.69;5031576;28;20022;-76
2023/01/08 06:57:24;;;;;;;49.65;35.28;;;;;;;2.84;100.00;99115.94;5034774;28;20037;-76
2023/01/08 06:59:49;;;;;;;49.72;34.72;;;;;;;2.89;100.00;99129.53;5034870;28;20025;-76
2023/01/08 07:02:16;;;;;;;47.45;33.63;;;;;;;2.85;100.00;99125.34;5035012;28;20021;-76
2023/01/08 07:04:42;;;;;;;49.40;34.03;;;;;;;2.86;100.00;99125.28;5034539;28;20429;-76
2023/01/08 07:07:12;;;;;;;49.38;33.78;;;;;;;2.87;100.00;99126.16;5035072;28;20108;-76
2023/01/08 07:09:38;;;;;;;52.90;34.83;;;;;;;2.82;100.00;99108.25;5034774;28;20021;-76
2023/01/08 07:12:03;;;;;;;49.40;35.15;;;;;;;2.85;100.00;99115.91;5034851;28;20017;-76
2023/01/08 07:14:29;;;;;;;49.35;35.20;;;;;;;2.93;100.00;99118.28;5034788;28;20121;-76
2023/01/08 07:16:54;;;;;;;50.78;37.60;;;;;;;2.93;100.00;99116.56;5034452;28;20021;-76
2023/01/08 07:19:19;;;;;;;48.40;34.72;;;;;;;3.00;100.00;99125.84;5034889;28;20013;-76
2023/01/08 07:21:45;;;;;;;48.25;33.97;;;;;;;2.99;100.00;99116.44;5034518;28;20025;-76
2023/01/08 07:24:10;;;;;;;51.22;34.88;;;;;;;3.08;100.00;99133.38;5034862;28;20017;-76
2023/01/08 07:26:36;;;;;;;48.80;35.65;;;;;;;3.07;100.00;99123.94;5034640;28;20048;-76
2023/01/08 07:29:01;;;;;;;54.10;37.25;;;;;;;3.12;100.00;99129.84;5034365;28;20097;-76
2023/01/08 07:31:26;;;;;;;52.25;35.10;;;;;;;3.14;100.00;99127.22;5034465;28;20022;-76
2023/01/08 07:33:51;;;;;;;51.80;37.42;;;;;;;3.19;100.00;99125.38;5034161;28;20026;-76
2023/01/08 07:36:21;;;;;;;54.22;39.05;;;;;;;3.21;100.00;99116.75;5034485;28;20029;-76
2023/01/08 07:38:48;;;;;;;49.22;35.28;;;;;;;3.20;100.00;99091.91;5034135;28;20017;-76
2023/01/08 07:41:13;;;;;;;53.03;37.10;;;;;;;3.25;100.00;99095.19;5034163;28;20033;-76
2023/01/08 07:43:39;;;;;;;43.15;32.00;;;;;;;3.33;100.00;99096.69;5034324;28;20029;-76
2023/01/08 07:46:04;;;;;;;46.83;32.58;;;;;;;3.36;100.00;99104.34;5034008;28;20029;-76
2023/01/08 07:48:30;;;;;;;44.08;31.30;;;;;;;3.45;100.00;99102.38;5034325;28;20117;-76
2023/01/08 07:51:03;;;;;;;49.03;36.45;;;;;;;3.39;100.00;99081.94;5032566;28;20029;-76
2023/01/08 07:53:29;;;;;;;44.25;33.30;;;;;;;3.44;100.00;99084.41;5034292;28;20104;-76
2023/01/08 07:56:02;;;;;;;46.92;32.70;;;;;;;3.42;100.00;99071.59;5033843;28;20113;-76
2023/01/08 07:58:27;;;;;;;47.60;32.38;;;;;;;3.43;100.00;99073.25;5034009;28;20028;-76
2023/01/08 08:00:54;;;;;;;42.55;30.17;;;;;;;3.46;100.00;99070.63;5033703;28;20115;-76
2023/01/08 08:03:19;;;;;;;48.08;33.20;;;;;;;3.58;100.00;99089.16;5034104;28;20030;-76
2023/01/08 08:05:44;;;;;;;44.97;32.63;;;;;;;3.51;100.00;99075.63;5033737;28;20088;-77
2023/01/08 08:08:11;;;;;;;47.22;32.92;;;;;;;3.59;100.00;99078.84;5033183;28;20089;-76
2023/01/08 08:10:38;;;;;;;49.25;33.72;;;;;;;3.65;100.00;99073.50;5033709;28;20116;-76
2023/01/08 08:13:03;;;;;;;44.53;31.02;;;;;;;3.67;100.00;99061.44;5033876;28;20026;-76
2023/01/08 08:15:29;;;;;;;43.80;32.50;;;;;;;3.81;100.00;99084.25;5033512;28;20489;-76
2023/01/08 08:17:54;;;;;;;43.38;30.65;;;;;;;3.90;100.00;99077.97;5033674;28;20022;-76
2023/01/08 08:20:19;;;;;;;46.25;31.90;;;;;;;4.01;100.00;99065.66;5033554;28;20521;-76
2023/01/08 08:22:45;;;;;;;46.63;33.60;;;;;;;4.02;100.00;99043.28;5033651;28;20089;-76
2023/01/08 08:25:13;;;;;;;43.45;32.15;;;;;;;4.08;100.00;99040.53;5033576;28;20527;-76
2023/01/08 08:27:39;;;;;;;45.72;32.38;;;;;;;4.16;100.00;99043.72;5031973;28;20108;-76
2023/01/08 08:30:05;;;;;;;43.75;31.67;;;;;;;4.15;100.00;99036.88;5033012;28;20108;-76
2023/01/08 08:32:30;;;;;;;40.35;29.63;;;;;;;4.18;100.00;99034.22;5033204;28;20048;-76
2023/01/08 08:34:55;;;;;;;43.58;30.83;;;;;;;4.25;100.00;99046.84;5033104;28;20025;-76
2023/01/08 08:37:20;;;;;;;38.55;27.85;;;;;;;4.36;100.00;99069.72;5033262;28;20133;-76
2023/01/08 08:39:46;;;;;;;44.70;32.33;;;;;;;4.39;100.00;99045.59;5033231;28;20025;-76
2023/01/08 08:42:11;;;;;;;36.85;28.20;;;;;;;4.57;100.00;99052.75;5032886;28;20091;-77
2023/01/08 08:44:36;;;;;;;34.95;26.13;;;;;;;4.67;100.00;99059.28;5033020;28;20032;-76
2023/01/08 08:47:06;;;;;;;37.90;27.05;;;;;;;4.78;100.00;99064.13;5033248;28;20025;-76
2023/01/08 08:49:32;;;;;;;40.13;27.85;;;;;;;4.74;100.00;99041.88;5033031;28;20473;-76
2023/01/08 08:51:57;;;;;;;37.47;26.95;;;;;;;4.81;100.00;99043.38;5032832;28;20024;-76
2023/01/08 08:54:22;;;;;;;37.38;28.02;;;;;;;4.89;100.00;99043.97;5032927;28;20025;-76
2023/01/08 08:56:48;;;;;;;35.17;26.13;;;;;;;4.89;100.00;99037.97;5032849;28;20025;-76
2023/01/08 08:59:13;;;;;;;32.92;25.10;;;;;;;4.91;100.00;99052.50;5032671;28;20024;-76
2023/01/08 09:01:38;;;;;;;33.38;25.58;;;;;;;4.95;100.00;99054.06;5032938;28;20021;-76
2023/01/08 09:04:04;;;;;;;43.40;30.73;;;;;;;5.04;100.00;99052.94;5032858;28;20342;-76
2023/01/08 09:06:30;;;;;;;44.67;30.10;;;;;;;5.06;100.00;99058.91;5032610;28;20017;-76
2023/01/08 09:08:56;;;;;;;39.05;29.38;;;;;;;5.02;100.00;99038.41;5032422;28;20068;-76
2023/01/08 09:11:21;;;;;;;41.15;27.88;;;;;;;5.09;100.00;99050.19;5031354;28;20048;-76
2023/01/08 09:13:46;;;;;;;35.47;26.23;;;;;;;5.18;100.00;99061.06;5032369;28;20465;-76
2023/01/08 09:16:12;;;;;;;35.00;25.73;;;;;;;5.10;100.00;99046.69;5032827;28;20021;-76
2023/01/08 09:18:37;;;;;;;33.08;24.70;;;;;;;5.30;100.00;99069.25;5032285;28;20026;-76
2023/01/08 09:21:07;;;;;;;36.33;27.30;;;;;;;5.34;100.00;99074.25;5031809;28;20452;-77
2023/01/08 09:23:33;;;;;;;41.65;28.58;;;;;;;5.38;100.00;99064.69;5032449;28;20056;-76
2023/01/08 09:26:02;;;;;;;39.58;27.30;;;;;;;5.45;100.00;99064.41;5032068;28;20025;-76
2023/01/08 09:28:28;;;;;;;41.30;29.35;;;;;;;5.43;100.00;99062.78;5032220;28;20033;-76
2023/01/08 09:30:53;;;;;;;35.35;25.52;;;;;;;5.51;100.00;99071.94;5032223;28;20364;-76
2023/01/08 09:33:19;;;;;;;39.65;26.95;;;;;;;5.51;100.00;99063.34;5032398;28;20492;-76
2023/01/08 09:35:44;;;;;;;35.22;24.67;;;;;;;5.41;100.00;99042.19;5032166;28;20071;-77
2023/01/08 09:38:10;;;;;;;40.15;28.27;;;;;;;5.50;100.00;99053.91;5032089;28;20022;-76
2023/01/08 09:40:55;;;;;;;42.13;31.13;;;;;;;5.48;100.00;99050.56;5032099;28;20020;-77
2023/01/08 09:43:23;;;;;;;35.38;26.98;;;;;;;5.50;100.00;99049.59;5030639;28;20049;-76
2023/01/08 09:45:55;;;;;;;40.67;29.20;;;;;;;5.58;100.00;99048.50;5032224;28;20461;-76
2023/01/08 09:48:25;;;;;;;35.10;26.08;;;;;;;5.55;100.00;99028.75;5032091;28;20029;-77
2023/01/08 09:50:50;;;;;;;30.83;25.20;;;;;;;5.62;100.00;99029.41;5031657;28;20022;-77
2023/01/08 09:53:17;;;;;;;40.38;29.38;;;;;;;5.64;100.00;99017.25;5031926;28;20380;-76
2023/01/08 09:55:45;;;;;;;36.40;24.80;;;;;;;5.66;100.00;99018.06;5032136;28;20025;-76
2023/01/08 09:58:49;;;;;;;32.90;25.65;;;;;;;5.74;100.00;99010.88;5031764;28;20025;-76
2023/01/08 10:01:20;;;;;;;31.02;23.38;;;;;;;5.72;100.00;99005.72;5013788;28;20056;-76
2023/01/08 10:03:53;;;;;;;34.15;23.83;;;;;;;5.82;100.00;99013.16;5028919;28;20042;-76
2023/01/08 10:06:18;;;;;;;29.92;22.33;;;;;;;5.86;100.00;99010.41;5029108;28;20076;-76
2023/01/08 10:08:44;;;;;;;32.38;23.42;;;;;;;5.93;100.00;98998.13;5029151;28;20153;-77
2023/01/08 10:11:14;;;;;;;32.88;23.33;;;;;;;6.07;100.00;98998.44;5027758;28;20108;-77
2023/01/08 10:13:43;;;;;;;30.70;23.73;;;;;;;6.10;100.00;98985.38;5029269;28;20035;-77
2023/01/08 10:16:17;;;;;;;28.58;20.75;;;;;;;6.20;100.00;98986.72;5028301;28;20068;-76
2023/01/08 10:18:42;;;;;;;33.47;22.98;;;;;;;6.30;100.00;98988.94;5029089;28;20488;-77
2023/01/08 10:21:13;;;;;;;35.22;24.85;;;;;;;6.29;100.00;98982.91;5028942;28;20290;-81
2023/01/08 10:23:51;;;;;;;32.67;23.00;;;;;;;6.37;100.00;98982.63;5029261;28;20041;-80
2023/01/08 10:26:31;;;;;;;33.58;23.83;;;;;;;6.31;100.00;98969.91;5029397;28;20079;-80
2023/01/08 10:29:06;;;;;;;33.30;23.20;;;;;;;6.25;100.00;98963.25;5029146;28;20030;-80
2023/01/08 10:31:33;;;;;;;34.72;23.33;;;;;;;6.32;100.00;98980.22;5031645;28;20095;-80
2023/01/08 10:34:08;;;;;;;33.10;23.27;;;;;;;6.28;100.00;98963.16;5032817;28;20021;-79
2023/01/08 10:36:38;;;;;;;28.50;20.83;;;;;;;6.29;100.00;98964.81;5033076;28;20060;-79
2023/01/08 10:39:04;;;;;;;28.70;21.13;;;;;;;6.33;100.00;98971.56;5053093;28;20033;-79
2023/01/08 10:41:35;;;;;;;25.08;18.95;;;;;;;6.44;100.00;98974.53;5055588;28;20040;-79
2023/01/08 10:44:04;;;;;;;32.63;21.92;;;;;;;6.43;100.00;98956.50;5055070;28;20078;-79
2023/01/08 10:46:35;;;;;;;31.85;22.70;;;;;;;6.44;100.00;98958.16;5055350;28;20021;-79
2023/01/08 10:49:02;;;;;;;29.35;20.65;;;;;;;6.49;100.00;98958.84;5054991;28;20032;-79
2023/01/08 10:51:30;;;;;;;31.20;22.23;;;;;;;6.48;100.00;98947.63;5054927;28;20070;-79
2023/01/08 10:54:11;;;;;;;32.63;23.58;;;;;;;6.49;100.00;98949.34;5055043;28;20021;-79
2023/01/08 10:56:42;;;;;;;32.53;24.25;;;;;;;6.59;100.00;98956.72;5055239;28;20025;-79
2023/01/08 10:59:19;;;;;;;34.72;21.55;;;;;;;6.58;100.00;98924.84;5054938;28;20345;-79
2023/01/08 11:01:48;;;;;;;33.83;25.45;;;;;;;6.69;100.00;98927.78;5054973;28;20464;-79
2023/01/08 11:04:35;;;;;;;26.98;21.48;;;;;;;6.74;100.00;98931.03;5054672;28;20400;-79
2023/01/08 11:07:03;;;;;;;32.45;24.70;;;;;;;6.80;100.00;98929.09;5053588;28;20025;-79
2023/01/08 11:09:32;;;;;;;34.92;25.35;;;;;;;6.76;100.00;98920.63;5054795;28;20457;-79
2023/01/08 11:11:58;;;;;;;33.33;23.55;;;;;;;6.86;100.00;98927.06;5054619;28;20025;-79
2023/01/08 11:14:28;;;;;;;32.97;22.48;;;;;;;6.96;100.00;98938.72;5053381;28;20032;-79
2023/01/08 11:16:55;;;;;;;29.42;21.92;;;;;;;7.07;100.00;98950.34;5054705;28;20104;-79
2023/01/08 11:19:27;;;;;;;29.65;21.17;;;;;;;7.15;100.00;98937.91;5054679;28;20017;-80